Terminal Aerodrome Forecast
Issued by NWS Blacksburg, VA

Home | Current Version | Previous Version | Text Only | Print | Product List | Glossary On
Versions: 1 2 3 4 5 6 7 8 9 10 11 12 13 14 15 16 17 18 19 20 21 22 23 24 25 26 27 28 29 30 31 32 33 34 35 36 37
000
FTUS41 KRNK 282101 AAA
TAFLYH
TAF AMD
KLYH 282101Z 2821/2918 15008KT P6SM VCSH SCT040 BKN080
      TEMPO 2821/2823 4SM SHRA
     FM290100 00000KT 5SM -SHRA SCT035 BKN060
     FM290800 00000KT 2SM BR SCT005 BKN020
     FM291400 20005KT P6SM SCT035 BKN050=

USA.gov is the U.S. government's official web portal to all federal, state and local government web resources and services.